Time;durP1;ratioP1;P1;durP2;ratioP2;P2;SDS_P1;SDS_P2;PMS_P1;PMS_P2;Temp;Humidity;BMP_temperature;BMP_pressure;BME280_temperature;BME280_humidity;BME280_pressure;Samples;Min_cycle;Max_cycle;Signal;HPM_P1;HPM_P2
2021/03/05 00:01:30;;;;;;;21.07;19.57;;;9.00;99.90;;;;;;4877243;29;20464;-75
2021/03/05 00:03:56;;;;;;;20.80;19.20;;;9.10;99.90;;;;;;4877579;29;20466;-75
2021/03/05 00:06:22;;;;;;;24.23;22.27;;;9.10;99.90;;;;;;4877254;29;20460;-74
2021/03/05 00:08:49;;;;;;;27.03;24.77;;;9.00;99.90;;;;;;4877242;29;20471;-74
2021/03/05 00:11:15;;;;;;;28.53;25.83;;;8.90;99.90;;;;;;4877180;29;20978;-75
2021/03/05 00:13:42;;;;;;;28.67;26.00;;;8.80;99.90;;;;;;4876936;29;20487;-75
2021/03/05 00:16:08;;;;;;;27.33;25.00;;;8.70;99.90;;;;;;4876829;29;20467;-74
2021/03/05 00:18:34;;;;;;;29.30;26.73;;;8.60;99.90;;;;;;4877176;29;20452;-74
2021/03/05 00:21:01;;;;;;;29.63;27.03;;;8.50;99.90;;;;;;4877120;29;20827;-75
2021/03/05 00:23:27;;;;;;;27.63;25.33;;;8.40;99.90;;;;;;4877161;29;20456;-74
2021/03/05 00:25:53;;;;;;;30.47;27.60;;;8.40;99.90;;;;;;4876725;29;20508;-74
2021/03/05 00:28:20;;;;;;;29.30;26.70;;;8.40;99.90;;;;;;4877083;29;20487;-74
2021/03/05 00:30:47;;;;;;;31.10;28.50;;;8.40;99.90;;;;;;4877160;29;20467;-75
2021/03/05 00:33:13;;;;;;;28.90;26.47;;;8.50;99.90;;;;;;4876956;29;21031;-75
2021/03/05 00:35:40;;;;;;;29.00;26.53;;;8.30;99.90;;;;;;4876996;29;20476;-73
2021/03/05 00:38:06;;;;;;;28.57;26.37;;;8.40;99.90;;;;;;4876852;29;20452;-74
2021/03/05 00:40:32;;;;;;;26.10;23.93;;;8.30;99.90;;;;;;4880380;29;20495;-74
2021/03/05 00:42:58;;;;;;;30.30;27.80;;;8.20;99.90;;;;;;4881062;29;20464;-73
2021/03/05 00:45:25;;;;;;;32.60;29.60;;;8.00;99.90;;;;;;4880841;29;20488;-74
2021/03/05 00:47:52;;;;;;;30.93;28.20;;;7.80;99.90;;;;;;4880578;29;20487;-76
2021/03/05 00:50:20;;;;;;;32.87;29.40;;;7.80;99.90;;;;;;4880715;29;20464;-76
2021/03/05 00:52:47;;;;;;;36.73;32.87;;;7.70;99.90;;;;;;4880396;29;20482;-76
2021/03/05 00:55:13;;;;;;;36.30;32.40;;;7.60;99.90;;;;;;4880733;29;20458;-76
2021/03/05 00:57:40;;;;;;;37.77;31.93;;;7.50;99.90;;;;;;4880609;29;20813;-75
2021/03/05 01:00:09;;;;;;;35.83;32.23;;;7.40;99.90;;;;;;4880662;29;20539;-76
2021/03/05 01:02:35;;;;;;;35.33;31.57;;;7.40;99.90;;;;;;4880532;29;20459;-76
2021/03/05 01:05:03;;;;;;;36.50;32.60;;;7.30;99.90;;;;;;4880233;29;20860;-77
2021/03/05 01:07:30;;;;;;;37.33;33.53;;;7.20;99.90;;;;;;4880539;29;20551;-77
2021/03/05 01:09:56;;;;;;;34.93;31.33;;;7.20;99.90;;;;;;4880829;29;20757;-77
2021/03/05 01:12:23;;;;;;;35.93;32.27;;;7.10;99.90;;;;;;4880021;29;20460;-77
2021/03/05 01:14:49;;;;;;;34.93;30.17;;;7.00;99.90;;;;;;4879895;29;20463;-76
2021/03/05 01:17:15;;;;;;;34.33;30.80;;;7.00;99.90;;;;;;4879746;29;20447;-76
2021/03/05 01:19:42;;;;;;;34.73;31.17;;;6.90;99.90;;;;;;4880004;29;20833;-75
2021/03/05 01:22:09;;;;;;;34.07;30.47;;;6.80;99.90;;;;;;4879977;29;20476;-75
2021/03/05 01:24:35;;;;;;;33.93;30.30;;;6.80;99.90;;;;;;4879853;29;20469;-76
2021/03/05 01:27:02;;;;;;;36.67;32.97;;;6.60;99.90;;;;;;4879685;29;20933;-75
2021/03/05 01:29:28;;;;;;;40.07;31.83;;;6.60;99.90;;;;;;4879716;29;20454;-76
2021/03/05 01:31:54;;;;;;;37.03;32.80;;;6.60;99.90;;;;;;4879745;29;20512;-75
2021/03/05 01:34:21;;;;;;;38.13;32.60;;;6.50;99.90;;;;;;4879757;29;20459;-76
2021/03/05 01:36:47;;;;;;;36.63;30.70;;;6.40;99.90;;;;;;4879544;29;20480;-76
2021/03/05 01:39:14;;;;;;;37.47;32.47;;;6.40;99.90;;;;;;4879678;29;20455;-76
2021/03/05 01:41:40;;;;;;;41.80;34.53;;;6.40;99.90;;;;;;4880037;29;20464;-76
2021/03/05 01:44:07;;;;;;;37.47;33.00;;;6.30;99.90;;;;;;4879938;29;20466;-76
2021/03/05 01:46:34;;;;;;;38.97;32.33;;;6.40;99.90;;;;;;4879525;29;20462;-76
2021/03/05 01:49:00;;;;;;;40.87;32.37;;;6.30;99.90;;;;;;4879970;29;20459;-75
2021/03/05 01:51:29;;;;;;;37.20;33.13;;;6.30;99.90;;;;;;4878471;29;20497;-75
2021/03/05 01:53:56;;;;;;;37.33;33.00;;;6.20;99.90;;;;;;4879405;29;20455;-76
2021/03/05 01:56:35;;;;;;;41.73;34.23;;;6.10;99.90;;;;;;4879687;29;20452;-75
2021/03/05 01:59:02;;;;;;;40.00;32.17;;;6.20;99.90;;;;;;4879539;29;20900;-76
2021/03/05 02:01:30;;;;;;;37.63;33.40;;;6.10;99.90;;;;;;4879672;29;20464;-76
2021/03/05 02:03:56;;;;;;;33.10;29.73;;;6.00;99.90;;;;;;4879570;29;20462;-76
2021/03/05 02:06:23;;;;;;;37.47;32.73;;;5.90;99.90;;;;;;4879099;29;20463;-76
2021/03/05 02:08:50;;;;;;;36.43;31.13;;;6.00;99.90;;;;;;4878789;29;20484;-77
2021/03/05 02:11:17;;;;;;;34.10;30.50;;;6.00;99.90;;;;;;4879580;29;20465;-76
2021/03/05 02:13:44;;;;;;;34.63;30.57;;;5.90;99.90;;;;;;4879389;29;20502;-75
2021/03/05 02:16:19;;;;;;;35.20;30.30;;;5.90;99.90;;;;;;4879158;29;20969;-76
2021/03/05 02:18:55;;;;;;;40.80;35.27;;;5.90;99.90;;;;;;4878957;29;20455;-76
2021/03/05 02:21:46;;;;;;;36.33;32.03;;;6.00;99.90;;;;;;4878999;29;20465;-76
2021/03/05 02:24:58;;;;;;;40.30;33.33;;;6.10;99.90;;;;;;4878850;29;20505;-75
2021/03/05 02:28:15;;;;;;;35.20;31.47;;;6.10;99.90;;;;;;4878692;29;20482;-74
2021/03/05 02:31:09;;;;;;;38.20;31.40;;;6.20;99.90;;;;;;4879007;29;20460;-74
2021/03/05 02:33:41;;;;;;;45.40;33.47;;;6.10;99.90;;;;;;4876111;29;20459;-74
2021/03/05 02:36:10;;;;;;;42.10;32.60;;;6.00;99.90;;;;;;4878706;29;20479;-74
2021/03/05 02:38:41;;;;;;;37.10;30.30;;;6.00;99.90;;;;;;4878576;29;20458;-74
2021/03/05 02:41:07;;;;;;;40.10;32.90;;;6.00;99.90;;;;;;4878569;29;20490;-75
2021/03/05 02:43:35;;;;;;;36.33;29.97;;;6.00;99.90;;;;;;4878572;29;20451;-73
2021/03/05 02:46:04;;;;;;;41.03;31.10;;;6.10;99.90;;;;;;4878231;29;20964;-72
2021/03/05 02:48:36;;;;;;;40.87;30.93;;;6.10;99.90;;;;;;4878356;29;20497;-73
2021/03/05 02:51:05;;;;;;;31.40;27.87;;;6.00;99.90;;;;;;4878228;29;20463;-74
2021/03/05 02:53:34;;;;;;;38.80;30.57;;;6.00;99.90;;;;;;4878380;29;20469;-73
2021/03/05 02:56:04;;;;;;;36.10;29.40;;;6.00;99.90;;;;;;4878138;29;20459;-73
2021/03/05 02:58:31;;;;;;;35.70;30.10;;;6.10;99.90;;;;;;4878409;29;20459;-73
2021/03/05 03:00:58;;;;;;;30.20;26.97;;;6.00;99.90;;;;;;4878102;29;20472;-73
2021/03/05 03:03:25;;;;;;;38.67;30.40;;;6.00;99.90;;;;;;4877579;29;20468;-73
2021/03/05 03:05:53;;;;;;;33.50;27.90;;;6.00;99.90;;;;;;4877803;29;20666;-73
2021/03/05 03:08:22;;;;;;;31.93;27.73;;;5.90;99.90;;;;;;4877919;29;21041;-73
2021/03/05 03:10:49;;;;;;;35.40;31.80;;;5.80;99.90;;;;;;4877935;29;20487;-73
2021/03/05 03:13:17;;;;;;;31.63;28.13;;;5.90;99.90;;;;;;4877981;29;20483;-73
2021/03/05 03:15:43;;;;;;;31.60;27.93;;;5.80;99.90;;;;;;4877993;29;20834;-74
2021/03/05 03:18:12;;;;;;;39.67;29.87;;;5.80;99.90;;;;;;4877535;29;20452;-73
2021/03/05 03:20:38;;;;;;;36.73;28.03;;;5.90;99.90;;;;;;4877940;29;20662;-73
2021/03/05 03:23:06;;;;;;;33.53;30.13;;;5.90;99.90;;;;;;4877825;29;20464;-72
2021/03/05 03:25:33;;;;;;;34.20;28.57;;;5.80;99.90;;;;;;4877775;29;20956;-73
2021/03/05 03:27:59;;;;;;;34.23;29.30;;;5.80;99.90;;;;;;4877909;29;20489;-74
2021/03/05 03:30:26;;;;;;;34.27;30.53;;;5.80;99.90;;;;;;4877734;29;20495;-72
2021/03/05 03:32:53;;;;;;;32.93;29.30;;;5.70;99.90;;;;;;4877895;29;20456;-73
2021/03/05 03:35:20;;;;;;;32.70;27.33;;;5.80;99.90;;;;;;4877512;29;20463;-72
2021/03/05 03:37:46;;;;;;;32.40;28.87;;;5.70;99.90;;;;;;4877796;29;20455;-73
2021/03/05 03:40:17;;;;;;;34.10;29.43;;;5.70;99.90;;;;;;4877394;29;20488;-73
2021/03/05 03:42:44;;;;;;;30.90;27.60;;;5.80;99.90;;;;;;4877531;29;20527;-73
2021/03/05 03:45:12;;;;;;;34.93;28.50;;;5.70;99.90;;;;;;4877698;29;20460;-77
2021/03/05 03:47:40;;;;;;;31.83;27.60;;;5.70;99.90;;;;;;4877518;29;20526;-73
2021/03/05 03:50:12;;;;;;;31.53;28.40;;;5.80;99.90;;;;;;4877556;29;20462;-74
2021/03/05 03:52:42;;;;;;;31.50;26.50;;;5.80;99.90;;;;;;4877434;29;20471;-73
2021/03/05 03:55:10;;;;;;;32.70;29.10;;;5.70;99.90;;;;;;4877097;29;20458;-74
2021/03/05 03:57:40;;;;;;;33.57;29.70;;;5.70;99.90;;;;;;4877417;29;20459;-73
2021/03/05 04:00:10;;;;;;;30.50;27.40;;;5.70;99.90;;;;;;4877545;29;20462;-74
2021/03/05 04:02:38;;;;;;;32.03;29.27;;;5.70;99.90;;;;;;4877375;29;20504;-73
2021/03/05 04:05:09;;;;;;;31.50;28.10;;;5.70;99.90;;;;;;4877066;29;20472;-73
2021/03/05 04:07:35;;;;;;;29.97;26.90;;;5.70;99.90;;;;;;4877612;29;20621;-73
2021/03/05 04:10:03;;;;;;;31.23;28.23;;;5.60;99.90;;;;;;4877492;29;20464;-72
2021/03/05 04:12:31;;;;;;;33.17;30.00;;;5.60;99.90;;;;;;4877270;29;20508;-73
2021/03/05 04:14:58;;;;;;;29.43;26.67;;;5.60;99.90;;;;;;4876508;29;20464;-73
2021/03/05 04:17:27;;;;;;;31.73;28.30;;;5.60;99.90;;;;;;4877258;29;20455;-74
2021/03/05 04:19:54;;;;;;;31.73;28.73;;;5.60;99.90;;;;;;4876911;29;20473;-74
2021/03/05 04:22:21;;;;;;;34.57;31.17;;;5.60;99.90;;;;;;4877267;29;20805;-73
2021/03/05 04:24:47;;;;;;;35.43;31.93;;;5.50;99.90;;;;;;4876969;29;20470;-73
2021/03/05 04:27:14;;;;;;;34.30;30.97;;;5.50;99.90;;;;;;4877151;29;20505;-74
2021/03/05 04:29:40;;;;;;;34.23;31.07;;;5.50;99.90;;;;;;4876875;29;20514;-74
2021/03/05 04:32:07;;;;;;;35.20;31.60;;;5.40;99.90;;;;;;4876925;29;20487;-74
2021/03/05 04:34:34;;;;;;;38.27;34.57;;;5.40;99.90;;;;;;4876674;29;20462;-73
2021/03/05 04:37:01;;;;;;;35.53;32.43;;;5.40;99.90;;;;;;4876909;29;20970;-73
2021/03/05 04:39:27;;;;;;;36.10;33.00;;;5.30;99.90;;;;;;4876858;29;20472;-73
2021/03/05 04:41:53;;;;;;;39.10;35.33;;;5.20;99.90;;;;;;4876869;29;20484;-73
2021/03/05 04:44:19;;;;;;;38.90;35.60;;;5.30;99.90;;;;;;4877011;29;20456;-73
2021/03/05 04:46:46;;;;;;;39.77;36.00;;;5.30;99.90;;;;;;4876693;29;20467;-73
2021/03/05 04:49:13;;;;;;;41.97;38.53;;;5.30;99.90;;;;;;4876628;29;20579;-73
2021/03/05 04:51:39;;;;;;;40.20;36.80;;;5.30;99.90;;;;;;4876544;29;20459;-73
2021/03/05 04:54:06;;;;;;;38.03;34.97;;;5.30;99.90;;;;;;4876605;29;20847;-74
2021/03/05 04:56:32;;;;;;;36.50;33.53;;;5.30;99.90;;;;;;4876688;29;20851;-72
2021/03/05 04:58:58;;;;;;;37.03;34.33;;;5.30;99.90;;;;;;4876639;29;20467;-73
2021/03/05 05:01:24;;;;;;;38.73;35.43;;;5.20;99.90;;;;;;4876520;29;20470;-74
2021/03/05 05:03:50;;;;;;;36.10;33.20;;;5.30;99.90;;;;;;4876417;29;20460;-75
2021/03/05 05:06:17;;;;;;;39.60;36.30;;;5.30;99.90;;;;;;4876396;29;20980;-74
2021/03/05 05:08:43;;;;;;;39.33;35.80;;;5.20;99.90;;;;;;4876746;29;20491;-74
2021/03/05 05:11:10;;;;;;;38.60;35.10;;;5.20;99.90;;;;;;4876613;29;20470;-75
2021/03/05 05:13:36;;;;;;;36.63;33.67;;;5.30;99.90;;;;;;4876519;29;20463;-74
2021/03/05 05:16:02;;;;;;;37.20;34.07;;;5.30;99.90;;;;;;4876540;29;20469;-74
2021/03/05 05:18:28;;;;;;;37.73;34.83;;;5.30;99.90;;;;;;4876462;29;20499;-74
2021/03/05 05:20:54;;;;;;;35.53;32.57;;;5.30;99.90;;;;;;4876567;29;20833;-74
2021/03/05 05:23:21;;;;;;;36.80;33.60;;;5.30;99.90;;;;;;4876206;29;20465;-74
2021/03/05 05:25:48;;;;;;;35.77;32.60;;;5.30;99.90;;;;;;4878281;29;20488;-73
2021/03/05 05:28:14;;;;;;;37.00;34.00;;;5.20;99.90;;;;;;4880001;29;20498;-73
2021/03/05 05:30:40;;;;;;;34.87;32.03;;;5.20;99.90;;;;;;4879866;29;20470;-73
2021/03/05 05:33:06;;;;;;;36.03;33.13;;;5.20;99.90;;;;;;4879831;29;20462;-73
2021/03/05 05:35:33;;;;;;;35.20;32.17;;;5.20;99.90;;;;;;4879060;29;20538;-72
2021/03/05 05:37:59;;;;;;;34.40;31.40;;;5.20;99.90;;;;;;4879902;29;20453;-74
2021/03/05 05:40:27;;;;;;;34.23;31.83;;;5.20;99.90;;;;;;4879481;29;20492;-73
2021/03/05 05:42:53;;;;;;;31.80;29.37;;;5.30;99.90;;;;;;4879543;29;20463;-73
2021/03/05 05:45:19;;;;;;;34.87;31.77;;;5.30;99.90;;;;;;4879660;29;20534;-73
2021/03/05 05:47:46;;;;;;;32.80;30.30;;;5.30;99.90;;;;;;4879417;29;20496;-73
2021/03/05 05:50:13;;;;;;;35.57;32.40;;;5.30;99.90;;;;;;4879781;29;20465;-72
2021/03/05 05:52:41;;;;;;;33.20;30.57;;;5.30;99.90;;;;;;4879582;29;20463;-72
2021/03/05 05:55:08;;;;;;;32.37;29.77;;;5.30;99.90;;;;;;4879883;29;20481;-71
2021/03/05 05:57:38;;;;;;;29.57;27.33;;;5.30;99.90;;;;;;4879757;29;20463;-71
2021/03/05 06:00:08;;;;;;;30.27;27.50;;;5.20;99.90;;;;;;4879686;29;20471;-71
2021/03/05 06:02:35;;;;;;;29.87;27.37;;;5.20;99.90;;;;;;4879338;29;20457;-72
2021/03/05 06:05:02;;;;;;;30.20;27.50;;;5.20;99.90;;;;;;4879546;29;20458;-71
2021/03/05 06:07:31;;;;;;;29.03;26.50;;;5.20;99.90;;;;;;4879736;29;20499;-71
2021/03/05 06:09:57;;;;;;;27.20;24.83;;;5.20;99.90;;;;;;4879686;29;20465;-71
2021/03/05 06:12:23;;;;;;;24.77;22.47;;;5.10;99.90;;;;;;4879620;29;20461;-72
2021/03/05 06:14:50;;;;;;;27.50;25.00;;;5.10;99.90;;;;;;4879340;29;20978;-73
2021/03/05 06:17:16;;;;;;;25.67;23.30;;;5.10;99.90;;;;;;4879325;29;20457;-72
2021/03/05 06:19:42;;;;;;;24.80;22.70;;;5.10;99.90;;;;;;4879282;29;20962;-73
2021/03/05 06:22:19;;;;;;;23.27;20.93;;;5.10;99.90;;;;;;4879384;29;20465;-73
2021/03/05 06:24:46;;;;;;;23.60;21.60;;;5.20;99.90;;;;;;4878873;29;20608;-73
2021/03/05 06:27:12;;;;;;;23.60;21.60;;;5.20;99.90;;;;;;4878901;29;20989;-72
2021/03/05 06:29:40;;;;;;;22.63;20.60;;;5.30;99.90;;;;;;4879101;29;20460;-73
2021/03/05 06:32:08;;;;;;;21.77;19.87;;;5.30;99.90;;;;;;4879081;29;20533;-75
2021/03/05 06:34:44;;;;;;;25.00;22.90;;;5.30;99.90;;;;;;4878932;29;20467;-72
2021/03/05 06:37:10;;;;;;;24.10;21.80;;;5.30;99.90;;;;;;4878342;29;20504;-72
2021/03/05 06:39:37;;;;;;;22.80;20.73;;;5.20;99.90;;;;;;4878824;29;20536;-72
2021/03/05 06:42:05;;;;;;;24.67;22.50;;;5.20;99.90;;;;;;4878906;29;20470;-71
2021/03/05 06:44:34;;;;;;;23.97;21.97;;;5.20;99.90;;;;;;4878698;29;20459;-72
2021/03/05 06:47:09;;;;;;;25.97;23.37;;;5.20;99.90;;;;;;4878587;29;20870;-75
2021/03/05 06:49:39;;;;;;;23.93;21.77;;;5.30;99.90;;;;;;4878844;29;20883;-75
2021/03/05 06:52:06;;;;;;;25.07;23.00;;;5.30;99.90;;;;;;4878686;29;20956;-72
2021/03/05 06:54:34;;;;;;;25.77;23.67;;;5.20;99.90;;;;;;4878409;29;20812;-72
2021/03/05 06:57:01;;;;;;;26.93;24.83;;;5.20;99.90;;;;;;4878717;29;20468;-73
2021/03/05 06:59:35;;;;;;;25.40;23.37;;;5.30;99.90;;;;;;4878500;29;20461;-74
2021/03/05 07:02:02;;;;;;;27.53;24.97;;;5.30;99.90;;;;;;4878493;29;20488;-74
2021/03/05 07:04:30;;;;;;;28.20;25.77;;;5.30;99.90;;;;;;4878431;29;20511;-74
2021/03/05 07:06:58;;;;;;;31.03;28.47;;;5.20;99.90;;;;;;4878330;29;20469;-74
2021/03/05 07:09:27;;;;;;;29.03;26.63;;;5.20;99.90;;;;;;4878270;29;20454;-75
2021/03/05 07:11:54;;;;;;;29.27;26.33;;;5.20;99.90;;;;;;4878383;29;20459;-75
2021/03/05 07:14:52;;;;;;;29.37;26.90;;;5.10;99.90;;;;;;4878101;29;20458;-74
2021/03/05 07:17:20;;;;;;;29.63;27.03;;;5.10;99.90;;;;;;4877692;29;20686;-76
2021/03/05 07:19:47;;;;;;;31.97;29.17;;;5.10;99.90;;;;;;4878098;29;20458;-80
2021/03/05 07:22:13;;;;;;;31.33;28.50;;;5.10;99.90;;;;;;4878136;29;20450;-79
2021/03/05 07:24:40;;;;;;;30.47;27.73;;;5.10;99.90;;;;;;4878113;29;20923;-78
2021/03/05 07:27:07;;;;;;;29.30;26.90;;;5.10;99.90;;;;;;4877962;29;20529;-79
2021/03/05 07:29:36;;;;;;;30.37;27.57;;;5.10;99.90;;;;;;4877989;29;20456;-78
2021/03/05 07:32:06;;;;;;;30.13;27.63;;;5.20;99.90;;;;;;4877939;29;20861;-77
2021/03/05 07:34:35;;;;;;;29.37;26.93;;;5.20;99.90;;;;;;4877953;29;20863;-79
2021/03/05 07:37:05;;;;;;;29.53;27.13;;;5.20;99.90;;;;;;4877766;29;21105;-78
2021/03/05 07:39:33;;;;;;;30.47;27.67;;;5.30;99.90;;;;;;4877327;29;20987;-79
2021/03/05 07:41:59;;;;;;;29.83;27.30;;;5.40;99.90;;;;;;4876041;29;20458;-75
2021/03/05 07:44:26;;;;;;;30.00;27.50;;;5.40;99.90;;;;;;4876409;29;20449;-74
2021/03/05 07:46:53;;;;;;;29.63;26.90;;;5.60;99.90;;;;;;4870994;29;20516;-73
2021/03/05 07:49:26;;;;;;;29.40;26.93;;;5.50;99.90;;;;;;4873549;29;20482;-73
2021/03/05 07:51:55;;;;;;;28.27;25.97;;;5.50;99.90;;;;;;4876177;29;20473;-72
2021/03/05 07:54:50;;;;;;;28.10;25.50;;;5.40;99.90;;;;;;4877635;29;20518;-72
2021/03/05 07:57:45;;;;;;;29.43;26.50;;;5.30;99.90;;;;;;4877500;29;20467;-73
2021/03/05 08:00:13;;;;;;;27.67;25.37;;;5.40;99.90;;;;;;4877506;29;20550;-72
2021/03/05 08:02:57;;;;;;;28.63;26.23;;;5.30;99.90;;;;;;4877288;29;20517;-74
2021/03/05 08:05:41;;;;;;;28.07;25.63;;;5.50;99.90;;;;;;4877213;29;20822;-73
2021/03/05 08:08:21;;;;;;;26.07;23.73;;;5.50;99.90;;;;;;4877459;29;20492;-73
2021/03/05 08:10:51;;;;;;;25.90;23.20;;;5.50;99.90;;;;;;4877452;29;20470;-73
2021/03/05 08:13:47;;;;;;;26.07;23.57;;;5.60;99.90;;;;;;4877286;29;20453;-73
2021/03/05 08:16:38;;;;;;;24.97;22.53;;;5.50;99.90;;;;;;4877592;29;20470;-71
2021/03/05 08:19:44;;;;;;;27.23;24.43;;;5.50;99.90;;;;;;4877274;29;21033;-73
2021/03/05 08:22:11;;;;;;;25.57;23.27;;;5.40;99.90;;;;;;4877360;29;20487;-73
2021/03/05 08:24:39;;;;;;;24.87;22.50;;;5.40;99.90;;;;;;4877694;29;20486;-71
2021/03/05 08:27:09;;;;;;;28.37;25.47;;;5.40;99.90;;;;;;4877301;29;20474;-72
2021/03/05 08:30:08;;;;;;;26.63;24.27;;;5.40;99.90;;;;;;4877068;29;20464;-72
2021/03/05 08:32:54;;;;;;;27.70;25.10;;;5.40;99.90;;;;;;4856366;29;20500;-72
2021/03/05 08:35:44;;;;;;;26.60;23.97;;;5.40;99.90;;;;;;4875299;29;20530;-71
2021/03/05 08:38:13;;;;;;;24.93;22.57;;;5.50;99.90;;;;;;4877399;29;20454;-72
2021/03/05 08:40:46;;;;;;;25.87;23.33;;;5.60;99.90;;;;;;4877025;29;20584;-72
2021/03/05 08:43:18;;;;;;;26.90;24.40;;;5.60;99.90;;;;;;4877239;29;20451;-72
2021/03/05 08:45:46;;;;;;;24.50;22.07;;;5.60;99.90;;;;;;4877168;29;20484;-71
2021/03/05 08:48:23;;;;;;;24.27;22.10;;;5.70;99.90;;;;;;4877032;29;20523;-71
2021/03/05 08:50:50;;;;;;;20.23;18.13;;;5.70;99.90;;;;;;4877056;29;20439;-71
2021/03/05 08:53:17;;;;;;;23.83;20.90;;;5.80;99.90;;;;;;4876793;29;20458;-72
2021/03/05 08:55:44;;;;;;;21.20;18.77;;;5.90;99.90;;;;;;4876950;29;21000;-72
2021/03/05 08:58:15;;;;;;;22.60;20.37;;;5.90;99.90;;;;;;4876984;29;20498;-73
2021/03/05 09:00:43;;;;;;;22.27;20.37;;;5.90;99.90;;;;;;4879382;29;20445;-72
2021/03/05 09:03:11;;;;;;;22.03;20.07;;;5.90;99.90;;;;;;4880373;29;21056;-73
2021/03/05 09:05:40;;;;;;;21.57;19.47;;;6.00;99.90;;;;;;4880604;29;20471;-72
2021/03/05 09:08:07;;;;;;;23.43;21.33;;;6.10;99.90;;;;;;4880410;29;21222;-72
2021/03/05 09:10:39;;;;;;;21.17;18.97;;;6.30;99.90;;;;;;4878377;29;20854;-73
2021/03/05 09:13:06;;;;;;;21.97;19.97;;;6.30;99.90;;;;;;4880491;29;20972;-73
2021/03/05 09:15:40;;;;;;;26.63;22.10;;;6.40;99.90;;;;;;4880677;29;20459;-73
2021/03/05 09:18:09;;;;;;;24.70;20.93;;;6.40;99.90;;;;;;4880564;29;20455;-73
2021/03/05 09:20:43;;;;;;;23.60;21.07;;;6.50;99.90;;;;;;4880409;29;20993;-72
2021/03/05 09:23:36;;;;;;;22.23;20.17;;;6.60;99.90;;;;;;4880354;29;20456;-72
2021/03/05 09:26:04;;;;;;;22.50;20.20;;;6.60;99.90;;;;;;4880276;29;20452;-72
2021/03/05 09:28:37;;;;;;;23.83;21.30;;;6.60;99.90;;;;;;4880306;29;20502;-73
2021/03/05 09:31:03;;;;;;;21.90;19.80;;;6.70;99.90;;;;;;4880053;29;20952;-72
2021/03/05 09:33:32;;;;;;;22.30;20.20;;;6.60;99.90;;;;;;4880247;29;20473;-72
2021/03/05 09:36:09;;;;;;;21.33;19.40;;;6.50;99.90;;;;;;4880054;29;20884;-73
2021/03/05 09:38:38;;;;;;;22.43;20.20;;;6.60;99.90;;;;;;4866112;29;20455;-73
2021/03/05 09:41:14;;;;;;;21.90;19.90;;;6.60;99.90;;;;;;4861554;29;20491;-74
2021/03/05 09:43:40;;;;;;;20.97;18.77;;;6.50;99.90;;;;;;4861221;29;20445;-74
2021/03/05 09:46:18;;;;;;;22.43;20.03;;;6.60;99.90;;;;;;4861305;29;20459;-74
2021/03/05 09:48:45;;;;;;;21.47;19.47;;;6.60;99.90;;;;;;4861668;29;20487;-74
2021/03/05 09:51:12;;;;;;;19.90;18.23;;;6.60;99.90;;;;;;4861599;29;20464;-74
2021/03/05 09:53:47;;;;;;;20.47;18.67;;;6.80;99.90;;;;;;4862232;29;20861;-73
2021/03/05 09:56:13;;;;;;;19.40;17.47;;;6.90;99.90;;;;;;4880240;29;20466;-74
2021/03/05 09:58:52;;;;;;;22.40;20.03;;;6.90;99.90;;;;;;4880004;29;20456;-74
2021/03/05 10:01:18;;;;;;;20.83;18.93;;;7.10;99.90;;;;;;4879921;29;20463;-75
2021/03/05 10:03:51;;;;;;;19.33;17.63;;;7.10;99.90;;;;;;4880041;29;20460;-75
2021/03/05 10:06:18;;;;;;;20.97;18.20;;;7.10;99.90;;;;;;4877788;29;20549;-75
2021/03/05 10:08:44;;;;;;;19.40;17.60;;;7.20;99.90;;;;;;4879831;29;20488;-75
2021/03/05 10:11:12;;;;;;;19.83;17.80;;;7.20;99.90;;;;;;4879077;29;20464;-75
2021/03/05 10:13:54;;;;;;;21.20;19.03;;;7.20;99.90;;;;;;4879749;29;20884;-75
2021/03/05 10:16:22;;;;;;;20.83;18.73;;;7.30;99.90;;;;;;4877950;29;20619;-73
2021/03/05 10:18:51;;;;;;;19.70;18.00;;;7.20;99.90;;;;;;4879743;29;20448;-74
2021/03/05 10:21:19;;;;;;;21.03;19.07;;;7.40;99.90;;;;;;4879363;29;20451;-74
2021/03/05 10:23:46;;;;;;;19.73;18.10;;;7.40;99.90;;;;;;4880094;29;20462;-74
2021/03/05 10:26:17;;;;;;;21.23;19.33;;;7.90;99.90;;;;;;4879903;29;20468;-74
2021/03/05 10:28:44;;;;;;;21.47;19.50;;;8.00;99.90;;;;;;4879746;29;20488;-74
2021/03/05 10:31:11;;;;;;;19.60;17.27;;;7.80;99.90;;;;;;4879631;29;20463;-74
2021/03/05 10:33:39;;;;;;;21.53;18.80;;;8.00;99.90;;;;;;4879532;29;20878;-74
2021/03/05 10:36:08;;;;;;;20.57;18.67;;;8.00;99.90;;;;;;4879592;29;20978;-75
2021/03/05 10:38:34;;;;;;;19.23;17.10;;;8.20;99.90;;;;;;4879159;29;20520;-75
2021/03/05 10:41:01;;;;;;;20.63;18.60;;;8.10;99.90;;;;;;4879288;29;20491;-75
2021/03/05 10:43:27;;;;;;;21.50;19.60;;;8.10;99.90;;;;;;4879368;29;20833;-75
2021/03/05 10:45:54;;;;;;;19.40;17.50;;;8.00;99.90;;;;;;4879189;29;20468;-75
2021/03/05 10:48:20;;;;;;;19.87;18.27;;;8.10;99.90;;;;;;4879331;29;20830;-76
2021/03/05 10:50:46;;;;;;;18.87;17.27;;;8.10;99.90;;;;;;4879317;29;20456;-77
2021/03/05 10:53:13;;;;;;;20.33;18.43;;;8.40;99.90;;;;;;4878977;29;20468;-76
2021/03/05 10:55:39;;;;;;;20.73;18.93;;;8.50;99.90;;;;;;4878953;29;20456;-76
2021/03/05 10:58:06;;;;;;;20.87;18.77;;;8.30;99.90;;;;;;4878774;29;20459;-76
2021/03/05 11:00:32;;;;;;;19.77;17.77;;;8.50;99.90;;;;;;4879021;29;20456;-76
2021/03/05 11:02:58;;;;;;;21.67;18.40;;;8.30;99.90;;;;;;4879349;29;20804;-76
2021/03/05 11:05:24;;;;;;;19.57;17.70;;;8.20;99.90;;;;;;4878768;29;20576;-77
2021/03/05 11:07:52;;;;;;;21.10;19.07;;;8.20;99.90;;;;;;4878775;29;20488;-77
2021/03/05 11:10:20;;;;;;;19.07;17.27;;;8.20;99.90;;;;;;4878482;29;20464;-78
2021/03/05 11:12:47;;;;;;;20.10;18.00;;;8.20;99.90;;;;;;4878844;29;20890;-76
2021/03/05 11:15:15;;;;;;;20.43;18.47;;;8.30;99.90;;;;;;4871582;29;20456;-77
2021/03/05 11:17:42;;;;;;;22.67;19.03;;;8.50;99.90;;;;;;4876749;29;20831;-76
2021/03/05 11:20:09;;;;;;;22.23;17.70;;;8.50;99.90;;;;;;4877333;29;21019;-77
2021/03/05 11:22:36;;;;;;;19.53;17.60;;;8.40;99.90;;;;;;4877806;29;20464;-76
2021/03/05 11:25:03;;;;;;;20.83;18.70;;;8.40;99.90;;;;;;4877812;29;20452;-76
2021/03/05 11:27:32;;;;;;;21.53;19.47;;;8.40;99.90;;;;;;4877992;29;20509;-76
2021/03/05 11:29:58;;;;;;;21.30;19.13;;;8.20;99.90;;;;;;4877865;29;20460;-74
2021/03/05 11:32:24;;;;;;;19.33;17.53;;;7.90;99.90;;;;;;4878017;29;20979;-73
2021/03/05 11:34:50;;;;;;;20.07;18.27;;;7.80;99.90;;;;;;4878211;29;20915;-74
2021/03/05 11:37:16;;;;;;;21.63;18.43;;;7.90;99.90;;;;;;4878253;29;20476;-72
2021/03/05 11:39:42;;;;;;;21.80;19.83;;;7.80;99.90;;;;;;4877925;29;20455;-74
2021/03/05 11:42:09;;;;;;;20.47;16.33;;;7.80;99.90;;;;;;4876214;29;20528;-73
2021/03/05 11:44:36;;;;;;;20.13;17.93;;;7.80;99.90;;;;;;4877548;29;20982;-73
2021/03/05 11:47:30;;;;;;;20.80;18.77;;;7.80;99.90;;;;;;4877323;29;20480;-73
2021/03/05 11:49:56;;;;;;;20.53;18.37;;;8.00;99.90;;;;;;4876436;29;20472;-73
2021/03/05 11:52:23;;;;;;;20.87;18.77;;;8.00;99.90;;;;;;4877231;29;20512;-73
2021/03/05 11:54:49;;;;;;;20.37;18.53;;;7.90;99.90;;;;;;4877225;29;20816;-73
2021/03/05 11:57:15;;;;;;;19.03;17.27;;;7.70;99.90;;;;;;4877375;29;20531;-73
2021/03/05 11:59:42;;;;;;;20.33;18.23;;;7.70;99.90;;;;;;4877205;29;20456;-73
2021/03/05 12:02:08;;;;;;;19.57;17.53;;;7.60;99.90;;;;;;4877534;29;20460;-73
2021/03/05 12:04:35;;;;;;;19.47;17.77;;;7.60;99.90;;;;;;4877419;29;20511;-73
2021/03/05 12:07:01;;;;;;;20.77;18.67;;;7.50;99.90;;;;;;4876793;29;20756;-73
2021/03/05 12:09:27;;;;;;;19.40;17.57;;;7.50;99.90;;;;;;4877327;29;20543;-74
2021/03/05 12:11:53;;;;;;;19.57;17.40;;;7.70;99.90;;;;;;4877423;29;21006;-74
2021/03/05 12:14:19;;;;;;;19.30;17.20;;;7.90;99.90;;;;;;4877026;29;20460;-75
2021/03/05 12:16:46;;;;;;;21.33;19.00;;;8.00;99.90;;;;;;4877301;29;20685;-73
2021/03/05 12:19:12;;;;;;;20.30;18.50;;;8.30;99.90;;;;;;4877460;29;20456;-73
2021/03/05 12:21:39;;;;;;;20.43;18.43;;;8.40;99.90;;;;;;4877636;29;20464;-74
2021/03/05 12:24:06;;;;;;;20.23;18.27;;;8.40;99.90;;;;;;4877144;29;20452;-73
2021/03/05 12:26:32;;;;;;;20.23;18.43;;;8.30;99.90;;;;;;4877102;29;20512;-73
2021/03/05 12:28:58;;;;;;;20.90;19.07;;;8.50;99.90;;;;;;4876831;29;21005;-74
2021/03/05 12:31:25;;;;;;;21.00;19.13;;;8.50;99.90;;;;;;4877523;29;20460;-74
2021/03/05 12:33:53;;;;;;;19.67;17.87;;;8.80;99.90;;;;;;4877115;29;20464;-74
2021/03/05 12:36:19;;;;;;;19.70;17.97;;;8.70;99.90;;;;;;4876852;29;20479;-74
2021/03/05 12:38:45;;;;;;;21.73;19.73;;;8.60;99.90;;;;;;4877033;29;20452;-74
2021/03/05 12:41:11;;;;;;;19.03;17.40;;;8.60;99.90;;;;;;4876850;29;20480;-74
2021/03/05 12:43:38;;;;;;;19.80;17.70;;;8.50;99.90;;;;;;4877008;29;20822;-75
2021/03/05 12:46:04;;;;;;;22.67;18.63;;;8.40;99.90;;;;;;4876836;29;21198;-74